Aeroporto :
LOGIN :

Iscrizione | Disclaimer

   EN    FR    IT 

 










Sommario :    VFR   VFR Marginale   IFR   IFR Intensivo   IFR Molto Intensivo
Visibilità : 
Base nubi : 
>= 8 km
>= 3000ft
5 / 8 km
1000 / 3000 ft
1500m / 5 km
500 / 1000 ft
800 / 1500m
200 / 500 ft
< 800m
< 200 ft
Simboli :   Temporali  Nebbia  Neve Forte  Precipitazioni Forti  Vento > 20 kt
SIGMETs :   Varie  Temporali  Ghiacco  Turbolenza  Onda orograficha  Ceneri Vulcaniche






- Altitudine del aeroporto : 37 ft


EHVL - Vlieland Heliport

ULTIMO METAR :
  • 162055Z AUTO 01007KT 8000 BR OVC130 19/18 Q1010 BLU

METARs OBSOLETI :
  • 162025Z AUTO 35007KT 8000 BR FEW007 OVC310 19/18 Q1010 BLU
  • 162007Z AUTO 34008KT 8000 BR FEW006 OVC260 19/18 Q1010 BLU
  • 161955Z AUTO 34007KT 9000 BR OVC140 19/18 Q1010 BLU
  • 161925Z AUTO 33007KT 9000 BR OVC140 19/18 Q1010 BLU
  • 161855Z AUTO 32005KT 9999 SCT130 OVC210 20/18 Q1010 BLU
  • 161825Z AUTO 29004KT 260V320 9999 OVC110 20/18 Q1009 BLU

Previsioni scadute.



MetMap, La meteo Aeronautica in un colpo d'occhio ! - Copyright ORBIFLY Dicembre 2007 - Disclaimer

ORBIFLY MET'MAP TEAM :

Programmazione e sviluppo : Alexandra Zaïnal
Concezione : Baudouin d'Aumeries
Supporto tecnico e logistico : Manuel Goepfert
Aiuto : Marc-Olivier Méhu
Aiuto per la traduzione : Arnaldo La Scala




FONTI E CREDITI :

   NOAA